createdAt,value
2019-06-15T00:00:29.794Z,38.20
2019-06-15T00:02:57.262Z,38.50
2019-06-15T00:05:24.716Z,38.60
2019-06-15T00:07:52.961Z,38.60
2019-06-15T00:10:20.524Z,38.60
2019-06-15T00:12:47.980Z,38.50
2019-06-15T00:15:15.780Z,38.10
2019-06-15T00:17:43.225Z,38.00
2019-06-15T00:20:11.098Z,38.00
2019-06-15T00:22:38.614Z,37.80
2019-06-15T00:25:07.912Z,37.80
2019-06-15T00:27:35.588Z,37.90
2019-06-15T00:30:03.726Z,37.80
2019-06-15T00:32:31.305Z,37.70
2019-06-15T00:34:58.905Z,37.90
2019-06-15T00:37:26.609Z,37.90
2019-06-15T00:39:54.049Z,37.90
2019-06-15T00:42:21.656Z,37.90
2019-06-15T00:44:49.437Z,37.90
2019-06-15T00:47:16.893Z,38.00
2019-06-15T00:49:46.094Z,38.00
2019-06-15T00:52:13.540Z,38.10
2019-06-15T00:54:50.040Z,38.20
2019-06-15T00:57:12.601Z,38.20
2019-06-15T00:59:40.329Z,38.50
2019-06-15T01:02:08.882Z,38.90
2019-06-15T01:04:36.329Z,38.40
2019-06-15T01:07:04.152Z,38.70
2019-06-15T01:09:31.610Z,38.50
2019-06-15T01:11:59.071Z,38.60
2019-06-15T01:14:26.622Z,39.30
2019-06-15T01:16:54.060Z,38.70
2019-06-15T01:19:21.530Z,38.80
2019-06-15T01:21:49.038Z,38.80
2019-06-15T01:24:16.594Z,38.70
2019-06-15T01:26:44.012Z,38.60
2019-06-15T01:29:11.656Z,38.50
2019-06-15T01:31:39.172Z,38.50
2019-06-15T01:34:07.813Z,38.40
2019-06-15T01:36:35.250Z,38.50
2019-06-15T01:39:03.165Z,38.30
2019-06-15T01:41:32.518Z,38.30
2019-06-15T01:44:00.319Z,38.50
2019-06-15T01:46:28.220Z,38.50
2019-06-15T01:48:55.815Z,39.30
2019-06-15T01:51:23.262Z,38.50
2019-06-15T01:53:51.158Z,38.60
2019-06-15T01:56:19.202Z,39.50
2019-06-15T01:58:46.692Z,38.80
2019-06-15T02:01:15.930Z,38.90
2019-06-15T02:03:43.408Z,38.90
2019-06-15T02:06:10.990Z,38.80
2019-06-15T02:08:38.596Z,39.60
2019-06-15T02:11:05.990Z,39.00
2019-06-15T02:13:33.801Z,39.00
2019-06-15T02:16:02.193Z,38.90
2019-06-15T02:18:29.897Z,39.90
2019-06-15T02:20:57.441Z,39.40
2019-06-15T02:23:26.700Z,39.30
2019-06-15T02:25:54.156Z,39.30
2019-06-15T02:28:22.182Z,39.40
2019-06-15T02:30:49.646Z,39.80
2019-06-15T02:33:17.099Z,40.00
2019-06-15T02:35:44.554Z,40.00
2019-06-15T02:38:12.227Z,39.70
2019-06-15T02:40:39.666Z,39.60
2019-06-15T02:43:09.061Z,39.40
2019-06-15T02:45:36.439Z,39.40
2019-06-15T02:48:04.006Z,39.40
2019-06-15T02:50:31.784Z,39.40
2019-06-15T02:52:59.580Z,39.70
2019-06-15T02:55:27.493Z,39.80
2019-06-15T02:57:55.006Z,39.70
2019-06-15T03:00:41.743Z,39.90
2019-06-15T03:03:09.438Z,40.70
2019-06-15T03:05:37.839Z,41.00
2019-06-15T03:08:05.279Z,41.10
2019-06-15T03:10:33.086Z,41.50
2019-06-15T03:13:01.042Z,40.90
2019-06-15T03:15:28.501Z,41.60
2019-06-15T03:17:56.015Z,42.00
2019-06-15T03:20:23.434Z,42.40
2019-06-15T03:22:50.894Z,42.50
2019-06-15T03:25:18.686Z,41.70
2019-06-15T03:27:46.175Z,41.60
2019-06-15T03:30:13.875Z,41.90
2019-06-15T03:32:41.771Z,41.70
2019-06-15T03:35:10.701Z,41.70
2019-06-15T03:37:38.095Z,41.30
2019-06-15T03:40:06.786Z,41.30
2019-06-15T03:42:34.206Z,41.00
2019-06-15T03:45:01.916Z,41.00
2019-06-15T03:47:30.796Z,41.00
2019-06-15T03:49:58.226Z,40.60
2019-06-15T03:52:25.677Z,40.00
2019-06-15T03:54:53.330Z,40.40
2019-06-15T03:57:21.317Z,41.00
2019-06-15T03:59:48.770Z,41.10
2019-06-15T04:02:16.302Z,41.00
2019-06-15T04:04:43.746Z,40.90
2019-06-15T04:07:11.178Z,41.90
2019-06-15T04:09:38.807Z,41.50
2019-06-15T04:12:06.266Z,41.80
2019-06-15T04:14:33.716Z,42.30
2019-06-15T04:17:03.251Z,43.00
2019-06-15T04:19:30.719Z,42.20
2019-06-15T04:21:58.126Z,42.70
2019-06-15T04:24:25.840Z,42.10
2019-06-15T04:26:53.282Z,42.20
2019-06-15T04:29:20.729Z,42.80
2019-06-15T04:31:48.253Z,42.60
2019-06-15T04:34:15.704Z,43.00
2019-06-15T04:36:43.151Z,42.90
2019-06-15T04:39:10.809Z,43.30
2019-06-15T04:41:38.291Z,44.00
2019-06-15T04:44:05.770Z,44.20
2019-06-15T04:46:33.319Z,45.30
2019-06-15T04:49:00.813Z,44.40
2019-06-15T04:51:28.333Z,44.90
2019-06-15T04:53:56.849Z,44.90
2019-06-15T04:56:24.868Z,44.20
2019-06-15T04:58:52.327Z,43.80
2019-06-15T05:01:19.786Z,43.90
2019-06-15T05:03:47.283Z,44.20
2019-06-15T05:06:15.911Z,45.10
2019-06-15T05:08:43.310Z,44.90
2019-06-15T05:11:10.762Z,44.60
2019-06-15T05:13:38.308Z,44.70
2019-06-15T05:16:05.907Z,45.00
2019-06-15T05:18:33.340Z,44.50
2019-06-15T05:21:00.769Z,43.70
2019-06-15T05:23:29.620Z,43.50
2019-06-15T05:25:57.048Z,43.60
2019-06-15T05:28:24.522Z,43.80
2019-06-15T05:30:52.082Z,44.70
2019-06-15T05:33:19.546Z,44.10
2019-06-15T05:35:47.002Z,43.70
2019-06-15T05:38:14.519Z,43.60
2019-06-15T05:40:41.956Z,42.70
2019-06-15T05:43:09.402Z,43.10
2019-06-15T05:45:37.070Z,44.50
2019-06-15T05:48:07.432Z,46.20
2019-06-15T05:50:36.661Z,45.80
2019-06-15T05:53:04.291Z,45.00
2019-06-15T05:55:31.958Z,45.30
2019-06-15T05:57:59.951Z,45.00
2019-06-15T06:00:27.501Z,45.70
2019-06-15T06:02:54.942Z,45.60
2019-06-15T06:05:22.455Z,45.90
2019-06-15T06:07:50.172Z,45.20
2019-06-15T06:10:19.410Z,44.40
2019-06-15T06:12:46.868Z,44.70
2019-06-15T06:15:14.489Z,44.60
2019-06-15T06:17:42.462Z,46.80
2019-06-15T06:20:12.124Z,47.20
2019-06-15T06:22:39.876Z,47.30
2019-06-15T06:25:07.759Z,47.60
2019-06-15T06:27:36.834Z,47.60
2019-06-15T06:30:05.762Z,47.10
2019-06-15T06:32:33.233Z,47.60
2019-06-15T06:35:00.986Z,47.80
2019-06-15T06:37:28.646Z,47.10
2019-06-15T06:39:56.116Z,47.40
2019-06-15T06:42:23.620Z,48.30
2019-06-15T06:44:52.179Z,48.50
2019-06-15T06:47:19.645Z,50.00
2019-06-15T06:49:48.926Z,50.00
2019-06-15T06:52:17.455Z,49.10
2019-06-15T06:54:45.110Z,49.70
2019-06-15T06:57:13.374Z,49.10
2019-06-15T06:59:41.017Z,48.40
2019-06-15T07:02:08.709Z,48.40
2019-06-15T07:04:36.370Z,49.10
2019-06-15T07:07:04.020Z,50.00
2019-06-15T07:09:31.468Z,48.50
2019-06-15T07:11:58.978Z,48.90
2019-06-15T07:14:26.629Z,49.40
2019-06-15T07:16:54.214Z,50.40
2019-06-15T07:19:21.746Z,50.30
2019-06-15T07:21:49.329Z,52.10
2019-06-15T07:24:16.778Z,51.90
2019-06-15T07:26:44.213Z,51.60
2019-06-15T07:29:11.902Z,52.70
2019-06-15T07:31:40.530Z,52.10
2019-06-15T07:34:07.988Z,51.70
2019-06-15T07:36:35.620Z,50.60
2019-06-15T07:39:05.730Z,50.10
2019-06-15T07:41:33.196Z,50.10
2019-06-15T07:44:00.738Z,50.70
2019-06-15T07:46:28.304Z,50.30
2019-06-15T07:48:55.808Z,50.90
2019-06-15T07:51:23.236Z,49.80
2019-06-15T07:53:52.516Z,49.10
2019-06-15T07:56:20.240Z,49.60
2019-06-15T07:58:48.330Z,48.00
2019-06-15T08:01:15.751Z,46.70
2019-06-15T08:03:43.490Z,45.30
2019-06-15T08:06:11.274Z,43.50
2019-06-15T08:08:40.665Z,44.70
2019-06-15T08:11:08.379Z,42.80
2019-06-15T08:13:36.170Z,43.30
2019-06-15T08:16:03.653Z,43.60
2019-06-15T08:18:31.283Z,43.80
2019-06-15T08:20:59.033Z,44.20
2019-06-15T08:23:26.573Z,44.60
2019-06-15T08:25:54.220Z,45.20
2019-06-15T08:28:23.578Z,45.10
2019-06-15T08:30:52.000Z,45.20
2019-06-15T08:33:21.287Z,45.80
2019-06-15T08:35:48.774Z,44.80
2019-06-15T08:38:16.197Z,45.00
2019-06-15T08:40:43.658Z,45.60
2019-06-15T08:43:11.148Z,45.90
2019-06-15T08:45:38.638Z,46.20
2019-06-15T08:48:06.079Z,45.60
2019-06-15T08:50:33.702Z,45.30
2019-06-15T08:53:01.143Z,45.50
2019-06-15T08:55:28.975Z,45.40
2019-06-15T08:57:56.841Z,45.20
2019-06-15T09:00:24.597Z,45.20
2019-06-15T09:02:52.061Z,44.20
2019-06-15T09:05:19.573Z,45.20
2019-06-15T09:07:47.121Z,45.30
2019-06-15T09:10:14.794Z,45.00
2019-06-15T09:12:42.292Z,45.00
2019-06-15T09:15:11.893Z,45.00
2019-06-15T09:17:39.359Z,43.70
2019-06-15T09:20:07.734Z,43.10
2019-06-15T09:22:35.210Z,44.80
2019-06-15T09:25:03.021Z,44.10
2019-06-15T09:27:32.785Z,43.20
2019-06-15T09:30:00.371Z,43.40
2019-06-15T09:32:27.846Z,42.70
2019-06-15T09:34:55.497Z,42.50
2019-06-15T09:37:32.219Z,41.10
2019-06-15T09:39:59.687Z,40.30
2019-06-15T09:42:27.153Z,39.80
2019-06-15T09:44:54.702Z,38.50
2019-06-15T09:47:22.274Z,37.90
2019-06-15T09:49:49.750Z,36.20
2019-06-15T09:52:17.527Z,37.10
2019-06-15T09:54:45.037Z,38.80
2019-06-15T09:57:13.096Z,39.20
2019-06-15T09:59:40.929Z,40.10
2019-06-15T10:02:08.914Z,39.70
2019-06-15T10:04:36.373Z,39.40
2019-06-15T10:07:05.036Z,40.00
2019-06-15T10:09:32.571Z,40.70
2019-06-15T10:12:00.087Z,39.90
2019-06-15T10:14:27.532Z,40.30
2019-06-15T10:16:55.438Z,40.50
2019-06-15T10:19:22.930Z,40.30
2019-06-15T10:21:51.548Z,41.30
2019-06-15T10:24:19.062Z,41.60
2019-06-15T10:26:46.522Z,42.00
2019-06-15T10:29:13.973Z,42.30
2019-06-15T10:31:41.863Z,42.00
2019-06-15T10:34:09.340Z,41.10
2019-06-15T10:36:36.812Z,41.20
2019-06-15T10:39:05.585Z,41.90
2019-06-15T10:41:33.057Z,41.70
2019-06-15T10:44:00.476Z,41.20
2019-06-15T10:46:28.261Z,40.40
2019-06-15T10:48:55.793Z,40.50
2019-06-15T10:51:23.360Z,40.70
2019-06-15T10:53:51.155Z,40.30
2019-06-15T10:56:20.549Z,39.50
2019-06-15T10:58:48.224Z,40.40
2019-06-15T11:01:16.322Z,39.60
2019-06-15T11:03:44.834Z,40.90
2019-06-15T11:06:12.308Z,41.70
2019-06-15T11:08:39.928Z,41.50
2019-06-15T11:11:17.537Z,42.10
2019-06-15T11:13:45.289Z,41.80
2019-06-15T11:16:13.128Z,42.20
2019-06-15T11:18:41.636Z,43.30
2019-06-15T11:21:09.232Z,42.20
2019-06-15T11:23:36.732Z,41.70
2019-06-15T11:26:04.205Z,41.60
2019-06-15T11:28:32.116Z,42.60
2019-06-15T11:31:02.569Z,42.20
2019-06-15T11:33:30.014Z,41.40
2019-06-15T11:35:57.569Z,41.20
2019-06-15T11:38:25.042Z,40.80
2019-06-15T11:40:52.603Z,40.80
2019-06-15T11:43:20.674Z,40.80
2019-06-15T11:45:48.118Z,41.30
2019-06-15T11:48:15.567Z,41.80
2019-06-15T11:50:43.058Z,40.80
2019-06-15T11:53:10.498Z,40.60
2019-06-15T11:55:39.817Z,41.60
2019-06-15T11:58:07.596Z,41.80
2019-06-15T12:00:38.699Z,41.80
2019-06-15T12:03:06.173Z,42.20
2019-06-15T12:05:33.892Z,41.90
2019-06-15T12:08:01.559Z,42.50
2019-06-15T12:10:29.000Z,43.20
2019-06-15T12:12:56.532Z,43.80
2019-06-15T12:15:24.106Z,42.20
2019-06-15T12:17:51.578Z,42.30
2019-06-15T12:20:19.156Z,41.80
2019-06-15T12:22:46.628Z,41.50
2019-06-15T12:25:14.105Z,41.50
2019-06-15T12:27:41.663Z,41.70
2019-06-15T12:30:10.185Z,41.50
2019-06-15T12:32:37.633Z,40.90
2019-06-15T12:35:05.800Z,40.60
2019-06-15T12:37:33.244Z,41.40
2019-06-15T12:40:00.889Z,40.80
2019-06-15T12:42:28.401Z,40.60
2019-06-15T12:44:55.869Z,40.60
2019-06-15T12:47:23.702Z,41.20
2019-06-15T12:49:51.161Z,41.10
2019-06-15T12:52:18.655Z,41.80
2019-06-15T12:54:46.251Z,41.70
2019-06-15T12:57:13.769Z,41.60
2019-06-15T12:59:41.671Z,42.40
2019-06-15T13:02:09.227Z,42.70
2019-06-15T13:04:37.077Z,43.30
2019-06-15T13:07:04.612Z,43.80
2019-06-15T13:09:32.082Z,44.50
2019-06-15T13:11:59.682Z,44.80
2019-06-15T13:14:27.604Z,45.00
2019-06-15T13:16:55.053Z,44.90
2019-06-15T13:19:22.653Z,48.20
2019-06-15T13:21:50.139Z,47.90
2019-06-15T13:24:19.168Z,49.60
2019-06-15T13:26:46.815Z,51.50
2019-06-15T13:29:14.268Z,51.80
2019-06-15T13:31:41.779Z,53.00
2019-06-15T13:34:09.372Z,54.10
2019-06-15T13:36:36.949Z,54.60
2019-06-15T13:39:05.805Z,54.80
2019-06-15T13:41:33.335Z,54.30
2019-06-15T13:44:00.865Z,54.30
2019-06-15T13:46:29.438Z,54.30
2019-06-15T13:48:56.913Z,54.20
2019-06-15T13:51:25.471Z,53.50
2019-06-15T13:53:52.943Z,53.50
2019-06-15T13:56:20.606Z,52.70
2019-06-15T13:58:48.636Z,52.40
2019-06-15T14:01:16.082Z,51.60
2019-06-15T14:03:43.661Z,51.50
2019-06-15T14:06:11.113Z,51.40
2019-06-15T14:08:38.576Z,52.30
2019-06-15T14:11:06.112Z,52.40
2019-06-15T14:13:33.626Z,53.50
2019-06-15T14:16:01.077Z,53.20
2019-06-15T14:18:28.574Z,52.40
2019-06-15T14:20:56.055Z,52.90
2019-06-15T14:23:23.761Z,52.20
2019-06-15T14:25:51.359Z,53.10
2019-06-15T14:28:19.063Z,53.50
2019-06-15T14:30:48.272Z,53.30
2019-06-15T14:33:16.212Z,54.40
2019-06-15T14:36:03.661Z,54.10
2019-06-15T14:38:31.423Z,55.40
2019-06-15T14:40:58.984Z,55.30
2019-06-15T14:43:26.548Z,55.40
2019-06-15T14:45:59.549Z,57.60
2019-06-15T14:48:23.818Z,58.30
2019-06-15T14:50:51.304Z,60.60
2019-06-15T14:53:18.949Z,62.90
2019-06-15T14:55:46.506Z,62.30
2019-06-15T14:58:16.914Z,63.50
2019-06-15T15:00:43.478Z,64.40
2019-06-15T15:03:11.130Z,69.30
2019-06-15T15:05:38.578Z,70.30
2019-06-15T15:08:06.870Z,74.90
2019-06-15T15:10:36.750Z,77.40
2019-06-15T15:13:03.929Z,72.50
2019-06-15T15:15:31.476Z,74.20
2019-06-15T15:17:59.018Z,87.10
2019-06-15T15:20:26.573Z,91.80
2019-06-15T15:22:56.712Z,98.40
2019-06-15T15:25:26.108Z,99.90
2019-06-15T15:27:52.899Z,99.90
2019-06-15T15:30:29.299Z,99.90
2019-06-15T15:32:57.237Z,99.90
2019-06-15T15:35:26.914Z,99.90
2019-06-15T15:37:56.791Z,99.90
2019-06-15T15:40:24.198Z,99.90
2019-06-15T15:42:51.643Z,99.90
2019-06-15T15:45:19.917Z,99.90
2019-06-15T15:47:47.456Z,99.90
2019-06-15T15:50:17.654Z,99.90
2019-06-15T15:52:46.241Z,99.90
2019-06-15T15:55:17.392Z,99.90
2019-06-15T15:57:46.788Z,99.90
2019-06-15T16:00:23.417Z,99.90
2019-06-15T16:02:52.331Z,99.90
2019-06-15T16:05:19.864Z,99.90
2019-06-15T16:07:47.438Z,99.90
2019-06-15T16:10:16.068Z,99.90
2019-06-15T16:12:46.276Z,99.90
2019-06-15T16:15:13.142Z,99.90
2019-06-15T16:17:40.582Z,99.90
2019-06-15T16:20:17.042Z,99.90
2019-06-15T16:22:45.932Z,99.90
2019-06-15T16:25:13.277Z,99.90
2019-06-15T16:27:40.776Z,99.90
2019-06-15T16:30:09.601Z,99.90
2019-06-15T16:32:37.393Z,99.90
2019-06-15T16:35:05.459Z,99.90
2019-06-15T16:37:36.220Z,99.90
2019-06-15T16:40:04.903Z,99.90
2019-06-15T16:42:32.354Z,99.90
2019-06-15T16:44:59.882Z,99.90
2019-06-15T16:47:27.522Z,99.90
2019-06-15T16:49:56.736Z,99.90
2019-06-15T16:52:26.778Z,99.90
2019-06-15T16:54:53.868Z,99.90
2019-06-15T16:57:21.380Z,99.90
2019-06-15T16:59:49.013Z,99.90
2019-06-15T17:02:17.244Z,99.90
2019-06-15T17:04:46.714Z,99.90
2019-06-15T17:07:17.366Z,99.90
2019-06-15T17:09:46.487Z,99.90
2019-06-15T17:12:16.964Z,99.90
2019-06-15T17:14:45.144Z,99.90
2019-06-15T17:17:17.101Z,99.90
2019-06-15T17:19:46.612Z,99.90
2019-06-15T17:22:18.590Z,99.90
2019-06-15T17:24:41.583Z,99.90
2019-06-15T17:27:09.167Z,99.90
2019-06-15T17:29:36.687Z,99.90
2019-06-15T17:32:06.342Z,99.90
2019-06-15T17:34:36.231Z,99.90
2019-06-15T17:37:03.471Z,99.90
2019-06-15T17:39:31.085Z,99.90
2019-06-15T17:41:58.950Z,99.90
2019-06-15T17:44:26.433Z,99.90
2019-06-15T17:46:56.360Z,99.90
2019-06-15T17:49:23.151Z,99.90
2019-06-15T17:51:50.891Z,99.90
2019-06-15T17:54:18.350Z,99.90
2019-06-15T17:56:46.323Z,99.90
2019-06-15T17:59:16.325Z,99.90
2019-06-15T18:01:43.894Z,99.90
2019-06-15T18:04:12.446Z,99.90
2019-06-15T18:06:42.916Z,99.90
2019-06-15T18:09:10.389Z,99.90
2019-06-15T18:11:37.956Z,99.90
2019-06-15T18:14:05.968Z,99.90
2019-06-15T18:16:33.503Z,99.90
2019-06-15T18:19:00.991Z,99.90
2019-06-15T18:21:28.465Z,99.90
2019-06-15T18:23:57.342Z,99.90
2019-06-15T18:26:26.769Z,99.90
2019-06-15T18:28:54.139Z,99.90
2019-06-15T18:31:21.588Z,99.90
2019-06-15T18:34:05.790Z,99.90
2019-06-15T18:36:19.921Z,99.90
2019-06-15T18:38:47.529Z,99.90
2019-06-15T18:41:17.045Z,99.90
2019-06-15T18:43:44.888Z,99.90
2019-06-15T18:46:12.460Z,99.90
2019-06-15T18:48:41.071Z,99.90
2019-06-15T18:51:08.797Z,99.90
2019-06-15T18:53:39.181Z,99.90
2019-06-15T18:56:06.993Z,99.90
2019-06-15T18:58:37.215Z,99.90
2019-06-15T19:01:06.937Z,99.90
2019-06-15T19:03:38.580Z,99.90
2019-06-15T19:06:07.819Z,99.90
2019-06-15T19:08:37.692Z,99.90
2019-06-15T19:11:06.954Z,99.90
2019-06-15T19:13:36.016Z,99.90
2019-06-15T19:16:03.744Z,99.90
2019-06-15T19:18:31.657Z,99.90
2019-06-15T19:20:59.143Z,99.90
2019-06-15T19:23:27.829Z,99.90
2019-06-15T19:25:57.451Z,99.90
2019-06-15T19:28:26.718Z,99.90
2019-06-15T19:30:56.240Z,99.90
2019-06-15T19:33:26.510Z,99.90
2019-06-15T19:35:53.350Z,99.90
2019-06-15T19:38:21.327Z,99.90
2019-06-15T19:40:49.708Z,99.90
2019-06-15T19:43:17.173Z,99.90
2019-06-15T19:45:44.824Z,99.90
2019-06-15T19:48:12.311Z,99.90
2019-06-15T19:50:39.937Z,99.90
2019-06-15T19:53:07.604Z,99.90
2019-06-15T19:55:36.128Z,99.90
2019-06-15T19:58:06.896Z,99.90
2019-06-15T20:00:36.461Z,99.90
2019-06-15T20:03:06.885Z,99.90
2019-06-15T20:05:36.943Z,99.90
2019-06-15T20:08:03.835Z,99.90
2019-06-15T20:10:31.534Z,99.90
2019-06-15T20:12:59.085Z,99.90
2019-06-15T20:15:26.734Z,99.90
2019-06-15T20:17:56.824Z,99.90
2019-06-15T20:20:23.652Z,99.90
2019-06-15T20:22:51.366Z,99.90
2019-06-15T20:25:19.127Z,99.90
2019-06-15T20:27:46.713Z,99.90
2019-06-15T20:30:16.945Z,99.90
2019-06-15T20:32:46.301Z,99.90
2019-06-15T20:35:20.962Z,99.90
2019-06-15T20:37:46.369Z,99.90
2019-06-15T20:40:16.833Z,99.90
2019-06-15T20:42:46.141Z,99.90
2019-06-15T20:45:14.113Z,99.90
2019-06-15T20:47:42.820Z,99.90
2019-06-15T20:50:24.725Z,99.90
2019-06-15T20:52:40.013Z,99.90
2019-06-15T20:55:08.437Z,99.90
2019-06-15T20:57:36.091Z,99.90
2019-06-15T21:00:06.177Z,99.90
2019-06-15T21:02:36.190Z,99.90
2019-06-15T21:05:07.044Z,99.90
2019-06-15T21:07:36.155Z,99.90
2019-06-15T21:10:07.077Z,99.90
2019-06-15T21:12:37.265Z,99.90
2019-06-15T21:15:07.140Z,99.90
2019-06-15T21:17:37.081Z,99.90
2019-06-15T21:20:06.702Z,99.90
2019-06-15T21:22:34.381Z,99.90
2019-06-15T21:25:02.028Z,99.90
2019-06-15T21:27:29.417Z,99.90
2019-06-15T21:29:57.067Z,99.90
2019-06-15T21:32:26.238Z,99.90
2019-06-15T21:34:55.785Z,99.90
2019-06-15T21:37:23.180Z,99.90
2019-06-15T21:39:51.098Z,99.90
2019-06-15T21:42:18.825Z,99.90
2019-06-15T21:44:46.983Z,99.90
2019-06-15T21:47:14.909Z,99.90
2019-06-15T21:49:42.393Z,99.90
2019-06-15T21:52:10.200Z,99.90
2019-06-15T21:54:38.061Z,99.90
2019-06-15T21:57:07.076Z,99.90
2019-06-15T21:59:36.970Z,99.90
2019-06-15T22:02:06.885Z,99.90
2019-06-15T22:04:36.640Z,99.90
2019-06-15T22:07:06.269Z,99.90
2019-06-15T22:09:33.073Z,99.90
2019-06-15T22:12:00.592Z,99.90
2019-06-15T22:14:28.004Z,99.90
2019-06-15T22:16:56.944Z,99.90
2019-06-15T22:19:26.188Z,99.90
2019-06-15T22:21:54.129Z,99.90
2019-06-15T22:24:23.224Z,99.90
2019-06-15T22:26:51.349Z,99.90
2019-06-15T22:29:18.865Z,99.90
2019-06-15T22:31:46.741Z,99.90
2019-06-15T22:34:16.260Z,99.90
2019-06-15T22:36:43.564Z,99.90
2019-06-15T22:39:11.059Z,99.90
2019-06-15T22:41:38.942Z,99.90
2019-06-15T22:44:06.669Z,99.90
2019-06-15T22:46:34.303Z,99.90
2019-06-15T22:49:01.756Z,99.90
2019-06-15T22:51:29.199Z,99.90
2019-06-15T22:53:57.062Z,99.90
2019-06-15T22:56:26.383Z,99.90
2019-06-15T22:58:53.942Z,99.90
2019-06-15T23:01:21.596Z,99.90
2019-06-15T23:03:49.229Z,99.90
2019-06-15T23:06:16.696Z,99.90
2019-06-15T23:08:46.851Z,99.90
2019-06-15T23:11:17.357Z,99.90
2019-06-15T23:13:46.331Z,99.90
2019-06-15T23:16:14.056Z,99.90
2019-06-15T23:18:41.653Z,99.90
2019-06-15T23:21:09.086Z,99.90
2019-06-15T23:23:36.577Z,99.90
2019-06-15T23:26:06.292Z,99.90
2019-06-15T23:28:35.800Z,99.90
2019-06-15T23:31:02.611Z,99.90
2019-06-15T23:33:30.055Z,99.90
2019-06-15T23:36:02.754Z,99.90
2019-06-15T23:38:30.227Z,99.90
2019-06-15T23:40:57.793Z,99.90
2019-06-15T23:43:26.939Z,99.90
2019-06-15T23:45:56.125Z,99.90
2019-06-15T23:48:23.721Z,99.90
2019-06-15T23:50:51.213Z,99.90
2019-06-15T23:53:18.869Z,99.90
2019-06-15T23:55:47.217Z,99.90
2019-06-15T23:58:17.325Z,99.90
